createdAt,value
2019-02-27T00:00:31.211Z,84.57
2019-02-27T00:03:38.855Z,85.81
2019-02-27T00:06:47.842Z,86.23
2019-02-27T00:09:55.785Z,86.54
2019-02-27T00:13:03.926Z,87.23
2019-02-27T00:16:11.664Z,86.41
2019-02-27T00:19:20.052Z,85.46
2019-02-27T00:22:27.491Z,85.92
2019-02-27T00:25:36.119Z,85.93
2019-02-27T00:28:44.394Z,86.00
2019-02-27T00:31:52.013Z,84.83
2019-02-27T00:34:59.345Z,84.94
2019-02-27T00:38:07.198Z,84.85
2019-02-27T00:41:14.676Z,85.28
2019-02-27T00:44:22.301Z,85.69
2019-02-27T00:47:30.179Z,86.08
2019-02-27T00:50:39.087Z,84.86
2019-02-27T00:53:46.697Z,85.38
2019-02-27T00:56:54.024Z,84.59
2019-02-27T01:00:01.396Z,83.99
2019-02-27T01:03:10.766Z,83.22
2019-02-27T01:06:18.343Z,84.04
2019-02-27T01:09:26.012Z,84.72
2019-02-27T01:12:35.882Z,84.16
2019-02-27T01:15:44.819Z,84.70
2019-02-27T01:18:52.316Z,84.86
2019-02-27T01:22:00.211Z,85.50
2019-02-27T01:25:07.774Z,85.43
2019-02-27T01:28:15.474Z,85.43
2019-02-27T01:31:24.068Z,85.71
2019-02-27T01:34:32.123Z,86.41
2019-02-27T01:37:39.616Z,86.64
2019-02-27T01:40:48.960Z,86.74
2019-02-27T01:43:56.670Z,86.89
2019-02-27T01:47:04.064Z,86.75
2019-02-27T01:50:35.351Z,86.96
2019-02-27T01:53:42.738Z,86.93
2019-02-27T01:56:49.979Z,87.54
2019-02-27T01:59:57.719Z,87.82
2019-02-27T02:03:05.966Z,87.75
2019-02-27T02:06:13.383Z,88.28
2019-02-27T02:09:33.624Z,89.07
2019-02-27T02:12:41.642Z,89.85
2019-02-27T02:16:34.868Z,90.70
2019-02-27T02:20:29.235Z,91.58
2019-02-27T02:24:25.867Z,92.41
2019-02-27T02:28:41.252Z,93.29
2019-02-27T02:32:41.160Z,93.67
2019-02-27T02:36:15.183Z,94.73
2019-02-27T02:40:05.566Z,94.46
2019-02-27T02:43:47.297Z,94.96
2019-02-27T02:47:26.826Z,95.75
2019-02-27T02:51:34.950Z,96.32
2019-02-27T02:55:39.250Z,96.68
2019-02-27T02:59:42.113Z,96.96
2019-02-27T03:03:20.079Z,97.18
2019-02-27T03:07:17.289Z,97.21
2019-02-27T03:15:01.875Z,97.74
2019-02-27T03:18:47.001Z,98.09
2019-02-27T03:22:17.305Z,97.95
2019-02-27T03:25:55.041Z,98.18
2019-02-27T03:30:00.473Z,98.24
2019-02-27T03:34:24.542Z,97.33
2019-02-27T03:38:45.042Z,97.42
2019-02-27T03:42:43.846Z,97.81
2019-02-27T03:47:07.324Z,97.72
2019-02-27T03:51:00.481Z,98.50
2019-02-27T03:55:13.140Z,99.01
2019-02-27T03:59:06.310Z,99.11
2019-02-27T04:03:19.519Z,99.36
2019-02-27T04:07:09.205Z,100.00
2019-02-27T04:10:16.385Z,99.90
2019-02-27T04:13:26.998Z,100.00
2019-02-27T04:16:33.249Z,99.23
2019-02-27T04:19:40.941Z,98.26
2019-02-27T04:22:48.213Z,98.25
2019-02-27T04:25:55.744Z,98.55
2019-02-27T04:29:04.409Z,98.72
2019-02-27T04:32:13.288Z,99.46
2019-02-27T04:35:20.776Z,100.00
2019-02-27T04:38:28.400Z,100.00
2019-02-27T04:41:36.207Z,100.00
2019-02-27T04:44:43.856Z,100.00
2019-02-27T04:47:51.191Z,100.00
2019-02-27T04:50:59.160Z,100.00
2019-02-27T04:54:07.554Z,100.00
2019-02-27T04:57:14.744Z,100.00
2019-02-27T05:00:26.048Z,100.00
2019-02-27T05:03:31.701Z,100.00
2019-02-27T05:06:38.905Z,100.00
2019-02-27T05:09:46.389Z,100.00
2019-02-27T05:12:53.682Z,100.00
2019-02-27T05:16:01.222Z,100.00
2019-02-27T05:19:08.597Z,100.00
2019-02-27T05:22:16.237Z,100.00
2019-02-27T05:25:23.873Z,100.00
2019-02-27T05:28:32.097Z,100.00
2019-02-27T05:31:40.796Z,100.00
2019-02-27T05:34:49.745Z,100.00
2019-02-27T05:37:58.057Z,100.00
2019-02-27T05:41:05.446Z,100.00
2019-02-27T05:44:12.886Z,100.00
2019-02-27T05:47:20.454Z,100.00
2019-02-27T05:50:27.746Z,100.00
2019-02-27T05:53:35.498Z,100.00
2019-02-27T05:56:42.862Z,100.00
2019-02-27T05:59:50.165Z,100.00
2019-02-27T06:02:57.857Z,100.00
2019-02-27T06:06:06.748Z,100.00
2019-02-27T06:09:14.208Z,100.00
2019-02-27T06:12:21.501Z,100.00
2019-02-27T06:15:29.246Z,100.00
2019-02-27T06:18:36.691Z,100.00
2019-02-27T06:21:44.537Z,100.00
2019-02-27T06:24:51.869Z,100.00
2019-02-27T06:27:59.077Z,100.00
2019-02-27T06:31:06.719Z,100.00
2019-02-27T06:34:14.047Z,100.00
2019-02-27T06:37:21.247Z,100.00
2019-02-27T06:40:28.651Z,100.00
2019-02-27T06:43:35.874Z,100.00
2019-02-27T06:46:44.611Z,100.00
2019-02-27T06:49:52.570Z,99.93
2019-02-27T06:53:00.173Z,99.26
2019-02-27T06:56:07.843Z,97.45
2019-02-27T06:59:15.530Z,96.93
2019-02-27T07:02:22.735Z,94.86
2019-02-27T07:05:30.050Z,92.88
2019-02-27T07:08:38.162Z,91.91
2019-02-27T07:11:48.156Z,91.02
2019-02-27T07:14:55.535Z,89.73
2019-02-27T07:18:03.409Z,86.50
2019-02-27T07:21:12.689Z,83.32
2019-02-27T07:24:19.892Z,78.37
2019-02-27T07:27:28.325Z,76.75
2019-02-27T07:30:36.676Z,75.36
2019-02-27T07:33:43.990Z,72.22
2019-02-27T07:36:51.875Z,71.92
2019-02-27T07:39:59.617Z,73.84
2019-02-27T07:43:06.913Z,72.95
2019-02-27T07:46:14.381Z,72.24
2019-02-27T07:49:22.104Z,73.13
2019-02-27T07:52:32.563Z,74.10
2019-02-27T07:55:39.453Z,73.81
2019-02-27T07:58:47.063Z,73.74
2019-02-27T08:01:54.777Z,72.74
2019-02-27T08:05:02.081Z,70.97
2019-02-27T08:08:09.542Z,71.31
2019-02-27T08:11:17.155Z,70.35
2019-02-27T08:14:24.451Z,68.96
2019-02-27T08:17:31.739Z,70.77
2019-02-27T08:20:39.427Z,68.90
2019-02-27T08:23:46.722Z,67.09
2019-02-27T08:26:54.232Z,65.26
2019-02-27T08:30:01.655Z,67.30
2019-02-27T08:33:09.122Z,67.08
2019-02-27T08:36:16.700Z,66.41
2019-02-27T08:39:24.718Z,67.31
2019-02-27T08:42:36.795Z,67.38
2019-02-27T08:45:42.272Z,65.93
2019-02-27T08:48:50.694Z,64.68
2019-02-27T08:51:58.173Z,64.77
2019-02-27T08:55:06.724Z,63.81
2019-02-27T08:58:14.006Z,64.60
2019-02-27T09:01:22.392Z,62.68
2019-02-27T09:04:29.645Z,64.22
2019-02-27T09:07:37.102Z,62.99
2019-02-27T09:10:44.566Z,63.25
2019-02-27T09:13:51.799Z,63.25
2019-02-27T09:16:59.108Z,62.20
2019-02-27T09:20:08.495Z,62.75
2019-02-27T09:23:16.082Z,63.79
2019-02-27T09:26:24.294Z,61.97
2019-02-27T09:29:31.889Z,62.08
2019-02-27T09:32:39.454Z,62.47
2019-02-27T09:35:47.169Z,62.89
2019-02-27T09:38:57.325Z,63.23
2019-02-27T09:42:04.347Z,63.79
2019-02-27T09:45:22.731Z,63.94
2019-02-27T09:48:31.121Z,62.50
2019-02-27T09:51:39.540Z,61.77
2019-02-27T09:54:47.576Z,60.09
2019-02-27T09:57:55.134Z,59.18
2019-02-27T10:01:14.522Z,58.89
2019-02-27T10:04:22.041Z,60.80
2019-02-27T10:07:29.817Z,59.20
2019-02-27T10:10:37.305Z,58.97
2019-02-27T10:13:45.125Z,58.53
2019-02-27T10:16:54.186Z,56.71
2019-02-27T10:20:06.975Z,54.78
2019-02-27T10:23:15.077Z,55.56
2019-02-27T10:26:22.750Z,53.57
2019-02-27T10:29:30.193Z,53.48
2019-02-27T10:32:37.881Z,49.62
2019-02-27T10:35:45.453Z,43.65
2019-02-27T10:38:53.198Z,43.60
2019-02-27T10:42:00.996Z,43.20
2019-02-27T10:45:10.126Z,37.66
2019-02-27T10:48:18.200Z,36.87
2019-02-27T10:51:25.844Z,34.34
2019-02-27T10:54:33.529Z,34.71
2019-02-27T10:57:40.940Z,39.54
2019-02-27T11:00:49.745Z,39.67
2019-02-27T11:03:57.183Z,39.65
2019-02-27T11:07:04.579Z,42.22
2019-02-27T11:10:12.198Z,45.91
2019-02-27T11:13:19.836Z,45.88
2019-02-27T11:16:28.032Z,45.68
2019-02-27T11:19:36.298Z,45.71
2019-02-27T11:22:43.623Z,44.14
2019-02-27T11:25:56.536Z,46.25
2019-02-27T11:29:00.687Z,45.50
2019-02-27T11:32:08.225Z,44.50
2019-02-27T11:35:16.637Z,45.31
2019-02-27T11:38:24.812Z,44.39
2019-02-27T11:41:33.286Z,45.67
2019-02-27T11:44:41.499Z,44.92
2019-02-27T11:47:49.673Z,45.13
2019-02-27T11:50:57.365Z,44.25
2019-02-27T11:54:04.780Z,45.32
2019-02-27T11:57:11.956Z,44.21
2019-02-27T12:00:25.088Z,44.94
2019-02-27T12:03:32.510Z,44.25
2019-02-27T12:06:41.619Z,45.48
2019-02-27T12:09:48.866Z,44.69
2019-02-27T12:13:00.760Z,44.54
2019-02-27T12:16:07.231Z,44.81
2019-02-27T12:19:14.425Z,44.50
2019-02-27T12:22:21.805Z,46.17
2019-02-27T12:25:30.127Z,46.39
2019-02-27T12:28:37.821Z,46.66
2019-02-27T12:31:48.377Z,43.98
2019-02-27T12:34:54.537Z,45.09
2019-02-27T12:38:06.904Z,45.27
2019-02-27T12:41:14.512Z,44.56
2019-02-27T12:44:21.665Z,45.19
2019-02-27T12:47:29.324Z,43.29
2019-02-27T12:50:36.866Z,45.50
2019-02-27T12:53:44.464Z,45.26
2019-02-27T12:56:51.761Z,45.93
2019-02-27T12:59:59.160Z,45.21
2019-02-27T13:03:09.336Z,44.97
2019-02-27T13:06:16.321Z,46.16
2019-02-27T13:09:24.511Z,46.22
2019-02-27T13:12:32.546Z,45.81
2019-02-27T13:15:41.109Z,46.29
2019-02-27T13:18:49.161Z,45.80
2019-02-27T13:21:56.352Z,46.30
2019-02-27T13:25:04.653Z,46.20
2019-02-27T13:28:14.594Z,46.11
2019-02-27T13:31:21.340Z,45.40
2019-02-27T13:34:29.119Z,45.84
2019-02-27T13:37:36.661Z,45.64
2019-02-27T13:40:44.191Z,45.89
2019-02-27T13:43:51.700Z,45.00
2019-02-27T13:46:59.005Z,46.01
2019-02-27T13:50:06.798Z,44.79
2019-02-27T13:53:13.996Z,44.27
2019-02-27T13:56:21.504Z,43.45
2019-02-27T13:59:28.798Z,44.99
2019-02-27T14:02:39.472Z,44.53
2019-02-27T14:05:45.550Z,43.98
2019-02-27T14:08:53.246Z,44.71
2019-02-27T14:12:00.740Z,44.35
2019-02-27T14:15:09.630Z,45.24
2019-02-27T14:18:17.040Z,44.41
2019-02-27T14:21:24.210Z,44.12
2019-02-27T14:24:31.803Z,44.99
2019-02-27T14:27:39.514Z,44.67
2019-02-27T14:30:47.310Z,44.38
2019-02-27T14:33:55.081Z,43.96
2019-02-27T14:37:02.391Z,44.88
2019-02-27T14:40:13.026Z,45.38
2019-02-27T14:43:20.538Z,45.07
2019-02-27T14:46:28.570Z,45.46
2019-02-27T14:49:36.045Z,45.44
2019-02-27T14:52:45.188Z,45.55
2019-02-27T14:55:53.221Z,43.89
2019-02-27T14:59:00.499Z,44.81
2019-02-27T15:02:08.071Z,45.33
2019-02-27T15:05:15.947Z,44.27
2019-02-27T15:08:25.169Z,44.71
2019-02-27T15:11:33.476Z,45.71
2019-02-27T15:14:41.595Z,45.67
2019-02-27T15:17:51.236Z,43.90
2019-02-27T15:20:59.048Z,44.42
2019-02-27T15:24:06.560Z,45.54
2019-02-27T15:27:13.979Z,45.62
2019-02-27T15:30:23.866Z,44.56
2019-02-27T15:33:31.343Z,44.96
2019-02-27T15:36:38.920Z,45.37
2019-02-27T15:39:46.317Z,44.42
2019-02-27T15:42:53.892Z,45.77
2019-02-27T15:46:01.281Z,45.88
2019-02-27T15:49:08.845Z,45.51
2019-02-27T15:52:16.131Z,45.99
2019-02-27T15:55:24.063Z,45.27
2019-02-27T15:58:31.645Z,46.04
2019-02-27T16:01:39.269Z,46.76
2019-02-27T16:04:46.472Z,46.84
2019-02-27T16:07:54.065Z,46.58
2019-02-27T16:11:01.457Z,46.55
2019-02-27T16:14:10.134Z,47.04
2019-02-27T16:17:17.966Z,48.03
2019-02-27T16:20:25.664Z,47.92
2019-02-27T16:23:37.252Z,49.16
2019-02-27T16:26:42.630Z,49.22
2019-02-27T16:29:51.003Z,50.62
2019-02-27T16:32:58.559Z,50.71
2019-02-27T16:36:05.920Z,51.14
2019-02-27T16:39:14.051Z,51.87
2019-02-27T16:42:22.223Z,52.26
2019-02-27T16:45:33.891Z,53.00
2019-02-27T16:48:39.791Z,53.93
2019-02-27T16:51:47.394Z,54.92
2019-02-27T16:55:00.737Z,55.91
2019-02-27T16:58:05.432Z,56.80
2019-02-27T17:01:13.105Z,57.95
2019-02-27T17:04:21.771Z,59.81
2019-02-27T17:07:29.942Z,62.39
2019-02-27T17:10:37.697Z,64.43
2019-02-27T17:13:46.996Z,66.27
2019-02-27T17:16:55.009Z,66.99
2019-02-27T17:20:02.975Z,67.95
2019-02-27T17:23:11.021Z,68.48
2019-02-27T17:26:18.701Z,68.70
2019-02-27T17:29:26.964Z,68.99
2019-02-27T17:32:34.873Z,69.06
2019-02-27T17:35:42.878Z,69.85
2019-02-27T17:38:50.608Z,69.78
2019-02-27T17:41:58.781Z,70.61
2019-02-27T17:45:10.070Z,71.50
2019-02-27T17:48:16.748Z,72.22
2019-02-27T17:51:24.414Z,72.98
2019-02-27T17:54:32.242Z,73.78
2019-02-27T17:57:39.794Z,74.01
2019-02-27T18:00:51.306Z,74.55
2019-02-27T18:03:59.412Z,75.33
2019-02-27T18:07:09.153Z,76.26
2019-02-27T18:10:17.908Z,76.74
2019-02-27T18:13:26.024Z,76.86
2019-02-27T18:16:34.995Z,77.53
2019-02-27T18:19:43.136Z,77.16
2019-02-27T18:22:50.783Z,77.18
2019-02-27T18:25:58.681Z,77.49
2019-02-27T18:29:07.526Z,77.57
2019-02-27T18:32:15.739Z,77.80
2019-02-27T18:35:28.676Z,77.97
2019-02-27T18:38:32.984Z,78.23
2019-02-27T18:41:40.858Z,78.61
2019-02-27T18:44:48.280Z,79.04
2019-02-27T18:47:56.223Z,79.37
2019-02-27T18:51:05.361Z,79.77
2019-02-27T18:54:13.163Z,80.66
2019-02-27T18:57:20.947Z,81.11
2019-02-27T19:00:28.647Z,81.18
2019-02-27T19:03:36.169Z,81.39
2019-02-27T19:06:46.268Z,81.67
2019-02-27T19:09:53.719Z,81.95
2019-02-27T19:13:01.577Z,82.41
2019-02-27T19:16:09.203Z,82.39
2019-02-27T19:19:17.351Z,82.65
2019-02-27T19:22:25.561Z,82.37
2019-02-27T19:25:34.632Z,82.54
2019-02-27T19:28:42.468Z,83.27
2019-02-27T19:31:51.753Z,83.48
2019-02-27T19:34:59.418Z,83.12
2019-02-27T19:38:07.067Z,83.24
2019-02-27T19:41:14.414Z,82.88
2019-02-27T19:44:22.154Z,82.81
2019-02-27T19:47:29.583Z,83.05
2019-02-27T19:50:37.202Z,83.35
2019-02-27T19:53:44.595Z,83.47
2019-02-27T19:56:52.497Z,83.70
2019-02-27T20:00:00.371Z,83.88
2019-02-27T20:03:08.015Z,83.67
2019-02-27T20:06:16.224Z,83.62
2019-02-27T20:09:23.977Z,83.72
2019-02-27T20:12:31.629Z,83.93
2019-02-27T20:15:39.194Z,83.76
2019-02-27T20:18:54.549Z,83.19
2019-02-27T20:21:58.579Z,83.11
2019-02-27T20:25:09.303Z,83.75
2019-02-27T20:28:17.356Z,83.33
2019-02-27T20:31:24.862Z,82.92
2019-02-27T20:34:32.676Z,82.05
2019-02-27T20:37:41.366Z,81.63
2019-02-27T20:40:49.299Z,81.51
2019-02-27T20:43:57.094Z,81.77
2019-02-27T20:47:05.061Z,81.59
2019-02-27T20:50:21.456Z,82.30
2019-02-27T20:53:29.610Z,82.57
2019-02-27T20:56:37.009Z,83.01
2019-02-27T20:59:45.203Z,82.96
2019-02-27T21:02:53.354Z,82.71
2019-02-27T21:06:01.978Z,82.69
2019-02-27T21:09:11.889Z,82.41
2019-02-27T21:12:19.475Z,82.66
2019-02-27T21:15:29.265Z,82.33
2019-02-27T21:18:37.308Z,82.60
2019-02-27T21:21:45.089Z,82.15
2019-02-27T21:24:52.794Z,81.90
2019-02-27T21:28:00.486Z,81.76
2019-02-27T21:31:08.413Z,81.49
2019-02-27T21:34:19.296Z,81.21
2019-02-27T21:37:25.945Z,81.39
2019-02-27T21:40:33.371Z,81.10
2019-02-27T21:43:42.844Z,80.78
2019-02-27T21:46:51.184Z,80.79
2019-02-27T21:49:58.925Z,80.69
2019-02-27T21:53:06.779Z,81.54
2019-02-27T21:56:15.251Z,81.96
2019-02-27T21:59:24.075Z,82.07
2019-02-27T22:02:33.713Z,81.02
2019-02-27T22:05:43.007Z,81.02
2019-02-27T22:08:50.860Z,80.31
2019-02-27T22:12:01.155Z,80.58
2019-02-27T22:15:30.949Z,81.14
2019-02-27T22:18:38.601Z,81.29
2019-02-27T22:21:46.120Z,81.47
2019-02-27T22:24:55.542Z,81.90
2019-02-27T22:28:03.638Z,81.44
2019-02-27T22:31:11.549Z,81.42
2019-02-27T22:34:18.992Z,81.92
2019-02-27T22:37:26.874Z,82.21
2019-02-27T22:40:37.995Z,81.31
2019-02-27T22:43:43.913Z,81.58
2019-02-27T22:46:51.576Z,81.98
2019-02-27T22:49:58.968Z,82.48
2019-02-27T22:53:06.572Z,82.93
2019-02-27T22:56:16.781Z,83.00
2019-02-27T22:59:23.731Z,83.18
2019-02-27T23:02:31.775Z,83.95
2019-02-27T23:05:39.389Z,84.01
2019-02-27T23:08:47.031Z,84.43
2019-02-27T23:11:54.726Z,84.98
2019-02-27T23:15:02.603Z,85.58
2019-02-27T23:18:10.271Z,85.42
2019-02-27T23:21:17.855Z,85.74
2019-02-27T23:24:25.468Z,86.33
2019-02-27T23:27:32.951Z,86.80
2019-02-27T23:30:40.481Z,87.03
2019-02-27T23:33:48.106Z,87.09
2019-02-27T23:36:56.472Z,87.15
2019-02-27T23:40:04.598Z,87.30
2019-02-27T23:43:12.261Z,87.76
2019-02-27T23:46:19.868Z,87.64
2019-02-27T23:49:27.364Z,88.02
2019-02-27T23:52:35.135Z,87.71
2019-02-27T23:55:44.613Z,87.82
2019-02-27T23:58:52.254Z,88.34
